createdAt,value
2019-05-09T00:01:14.175Z,9.48
2019-05-09T00:03:46.163Z,8.70
2019-05-09T00:06:18.129Z,9.50
2019-05-09T00:08:50.277Z,9.95
2019-05-09T00:11:24.412Z,10.23
2019-05-09T00:13:55.933Z,9.43
2019-05-09T00:16:27.955Z,8.90
2019-05-09T00:19:00.420Z,9.05
2019-05-09T00:21:33.932Z,10.20
2019-05-09T00:24:06.285Z,9.10
2019-05-09T00:26:38.731Z,8.15
2019-05-09T00:29:14.037Z,7.90
2019-05-09T00:31:48.059Z,8.90
2019-05-09T00:34:23.409Z,9.03
2019-05-09T00:36:55.651Z,8.70
2019-05-09T00:39:28.173Z,8.05
2019-05-09T00:42:00.367Z,9.13
2019-05-09T00:44:34.151Z,9.10
2019-05-09T00:47:07.965Z,9.05
2019-05-09T00:49:40.120Z,23.02
2019-05-09T00:52:14.085Z,10.55
2019-05-09T00:54:46.178Z,8.78
2019-05-09T00:57:28.825Z,8.28
2019-05-09T01:00:01.066Z,7.53
2019-05-09T01:02:34.018Z,8.28
2019-05-09T01:05:06.975Z,8.20
2019-05-09T01:07:39.044Z,9.65
2019-05-09T01:10:13.333Z,9.78
2019-05-09T01:12:45.567Z,8.40
2019-05-09T01:15:18.159Z,8.05
2019-05-09T01:17:50.488Z,8.88
2019-05-09T01:20:24.142Z,8.78
2019-05-09T01:22:57.052Z,8.43
2019-05-09T01:25:29.373Z,8.53
2019-05-09T01:28:03.358Z,8.93
2019-05-09T01:30:35.393Z,9.95
2019-05-09T01:33:09.320Z,8.10
2019-05-09T01:35:43.404Z,9.73
2019-05-09T01:38:15.827Z,8.53
2019-05-09T01:40:47.851Z,10.28
2019-05-09T01:43:19.595Z,10.08
2019-05-09T01:45:53.907Z,9.35
2019-05-09T01:48:26.448Z,8.80
2019-05-09T01:50:58.818Z,8.63
2019-05-09T01:53:53.194Z,9.15
2019-05-09T01:56:24.891Z,8.48
2019-05-09T01:58:56.963Z,9.05
2019-05-09T02:01:43.838Z,8.40
2019-05-09T02:04:19.601Z,9.23
2019-05-09T02:06:53.752Z,8.88
2019-05-09T02:09:25.928Z,9.45
2019-05-09T02:11:58.422Z,9.43
2019-05-09T02:14:34.256Z,8.60
2019-05-09T02:17:07.490Z,9.38
2019-05-09T02:19:58.930Z,11.95
2019-05-09T02:22:35.638Z,8.98
2019-05-09T02:25:11.012Z,9.85
2019-05-09T02:27:44.294Z,10.13
2019-05-09T02:30:17.782Z,9.13
2019-05-09T02:32:50.159Z,8.88
2019-05-09T02:35:55.692Z,9.43
2019-05-09T02:38:19.714Z,9.90
2019-05-09T02:40:50.814Z,9.95
2019-05-09T02:43:23.702Z,9.68
2019-05-09T02:45:59.501Z,11.78
2019-05-09T02:48:31.178Z,10.00
2019-05-09T02:51:03.576Z,12.55
2019-05-09T02:53:39.094Z,10.53
2019-05-09T02:56:09.597Z,12.65
2019-05-09T02:58:43.570Z,10.65
2019-05-09T03:01:18.953Z,10.23
2019-05-09T03:03:58.794Z,9.60
2019-05-09T03:06:29.752Z,10.55
2019-05-09T03:09:02.028Z,9.98
2019-05-09T03:11:34.176Z,10.45
2019-05-09T03:14:10.505Z,9.50
2019-05-09T03:16:48.859Z,10.60
2019-05-09T03:19:38.906Z,11.60
2019-05-09T03:22:29.821Z,9.53
2019-05-09T03:25:03.120Z,21.35
2019-05-09T03:27:39.117Z,11.50
2019-05-09T03:30:29.179Z,9.95
2019-05-09T03:33:01.904Z,11.90
2019-05-09T03:35:35.043Z,9.78
2019-05-09T03:38:08.349Z,11.25
2019-05-09T03:40:42.016Z,10.30
2019-05-09T03:43:33.157Z,10.00
2019-05-09T03:46:07.795Z,9.93
2019-05-09T03:48:41.692Z,11.00
2019-05-09T03:51:14.179Z,9.78
2019-05-09T03:53:48.434Z,10.90
2019-05-09T03:56:21.989Z,10.38
2019-05-09T03:58:54.265Z,10.03
2019-05-09T04:01:28.053Z,11.30
2019-05-09T04:04:00.755Z,9.38
2019-05-09T04:06:34.245Z,9.20
2019-05-09T04:09:08.252Z,10.05
2019-05-09T04:11:49.125Z,9.80
2019-05-09T04:14:23.042Z,10.08
2019-05-09T04:16:57.359Z,9.88
2019-05-09T04:19:49.171Z,10.28
2019-05-09T04:22:22.755Z,9.80
2019-05-09T04:24:54.769Z,9.90
2019-05-09T04:27:29.844Z,10.75
2019-05-09T04:30:06.235Z,8.93
2019-05-09T04:32:37.758Z,9.43
2019-05-09T04:35:10.351Z,9.33
2019-05-09T04:37:42.421Z,9.63
2019-05-09T04:40:37.761Z,8.93
2019-05-09T04:43:15.351Z,8.88
2019-05-09T04:45:42.065Z,9.28
2019-05-09T04:48:20.374Z,9.15
2019-05-09T04:50:49.516Z,9.90
2019-05-09T04:53:40.838Z,10.32
2019-05-09T04:56:19.362Z,9.23
2019-05-09T04:58:51.533Z,10.78
2019-05-09T05:01:24.916Z,8.85
2019-05-09T05:04:07.800Z,11.95
2019-05-09T05:06:40.531Z,8.80
2019-05-09T05:09:13.183Z,10.55
2019-05-09T05:11:47.127Z,9.25
2019-05-09T05:14:21.235Z,9.30
2019-05-09T05:17:05.438Z,9.73
2019-05-09T05:19:31.506Z,9.03
2019-05-09T05:22:04.795Z,10.43
2019-05-09T05:24:38.715Z,9.70
2019-05-09T05:27:11.521Z,11.45
2019-05-09T05:29:43.640Z,9.33
2019-05-09T05:32:17.960Z,10.13
2019-05-09T05:34:54.591Z,11.38
2019-05-09T05:37:28.115Z,11.38
2019-05-09T05:40:00.171Z,10.03
2019-05-09T05:42:32.293Z,10.13
2019-05-09T05:45:07.500Z,10.35
2019-05-09T05:47:41.338Z,10.75
2019-05-09T05:50:13.896Z,10.80
2019-05-09T05:52:47.525Z,10.45
2019-05-09T05:55:19.638Z,9.93
2019-05-09T05:57:51.781Z,11.83
2019-05-09T06:00:25.651Z,29.40
2019-05-09T06:02:58.719Z,22.82
2019-05-09T06:05:31.074Z,10.80
2019-05-09T06:08:03.162Z,11.05
2019-05-09T06:10:37.812Z,11.43
2019-05-09T06:13:09.424Z,9.95
2019-05-09T06:15:42.811Z,9.48
2019-05-09T06:18:18.395Z,11.10
2019-05-09T06:20:51.037Z,10.93
2019-05-09T06:23:23.654Z,9.65
2019-05-09T06:25:58.482Z,9.50
2019-05-09T06:28:30.051Z,10.75
2019-05-09T06:31:02.010Z,10.28
2019-05-09T06:33:34.509Z,9.20
2019-05-09T06:36:08.042Z,9.68
2019-05-09T06:38:41.573Z,14.90
2019-05-09T06:41:14.999Z,9.53
2019-05-09T06:43:49.703Z,8.60
2019-05-09T06:46:23.888Z,8.70
2019-05-09T06:49:17.906Z,9.10
2019-05-09T06:51:30.483Z,8.18
2019-05-09T06:54:09.430Z,9.38
2019-05-09T06:56:41.644Z,9.58
2019-05-09T06:59:14.001Z,10.38
2019-05-09T07:01:48.222Z,9.35
2019-05-09T07:04:21.589Z,10.90
2019-05-09T07:07:14.412Z,10.78
2019-05-09T07:09:48.094Z,10.00
2019-05-09T07:12:29.899Z,10.13
2019-05-09T07:15:02.205Z,12.90
2019-05-09T07:17:43.675Z,10.45
2019-05-09T07:20:18.295Z,10.93
2019-05-09T07:22:51.467Z,10.85
2019-05-09T07:25:27.622Z,11.05
2019-05-09T07:27:59.327Z,10.58
2019-05-09T07:33:24.562Z,9.10
2019-05-09T07:35:58.119Z,10.08
2019-05-09T07:38:34.519Z,10.28
2019-05-09T07:41:08.890Z,11.03
2019-05-09T07:43:43.980Z,9.53
2019-05-09T07:46:18.002Z,9.18
2019-05-09T07:48:52.201Z,10.95
2019-05-09T07:51:27.507Z,10.20
2019-05-09T07:54:21.232Z,10.50
2019-05-09T07:56:40.398Z,10.10
2019-05-09T07:59:12.644Z,9.48
2019-05-09T08:02:04.799Z,10.23
2019-05-09T08:04:39.739Z,9.43
2019-05-09T08:07:11.788Z,9.05
2019-05-09T08:09:49.297Z,10.45
2019-05-09T08:12:21.641Z,10.10
2019-05-09T08:15:08.536Z,9.65
2019-05-09T08:17:29.956Z,10.93
2019-05-09T08:20:02.273Z,9.95
2019-05-09T08:22:34.898Z,9.63
2019-05-09T08:25:08.431Z,9.65
2019-05-09T08:27:40.406Z,9.00
2019-05-09T08:30:13.226Z,9.63
2019-05-09T08:32:48.001Z,9.08
2019-05-09T08:35:19.436Z,10.60
2019-05-09T08:37:51.634Z,9.68
2019-05-09T08:40:24.196Z,9.65
2019-05-09T08:42:58.897Z,10.00
2019-05-09T08:45:31.444Z,10.30
2019-05-09T08:48:04.024Z,9.40
2019-05-09T08:50:38.914Z,10.58
2019-05-09T08:53:11.293Z,10.18
2019-05-09T08:55:43.471Z,10.88
2019-05-09T08:58:19.271Z,11.03
2019-05-09T09:00:49.474Z,12.15
2019-05-09T09:03:21.902Z,12.45
2019-05-09T09:05:54.843Z,13.90
2019-05-09T09:08:28.426Z,14.07
2019-05-09T09:11:01.233Z,15.78
2019-05-09T09:13:33.499Z,16.90
2019-05-09T09:16:15.806Z,12.25
2019-05-09T09:18:39.739Z,9.78
2019-05-09T09:21:12.361Z,3.85
2019-05-09T09:23:49.618Z,6.50
2019-05-09T09:26:18.879Z,5.78
2019-05-09T09:28:51.431Z,4.90
2019-05-09T09:31:24.671Z,5.85
2019-05-09T09:34:18.088Z,7.97
2019-05-09T09:36:49.954Z,5.20
2019-05-09T09:39:22.123Z,8.35
2019-05-09T09:41:54.267Z,4.90
2019-05-09T09:44:28.775Z,4.08
2019-05-09T09:47:01.184Z,5.08
2019-05-09T09:49:33.726Z,6.45
2019-05-09T09:52:08.517Z,6.65
2019-05-09T09:54:39.899Z,7.08
2019-05-09T09:57:11.928Z,7.97
2019-05-09T09:59:48.130Z,5.95
2019-05-09T10:02:21.175Z,6.80
2019-05-09T10:04:53.181Z,6.58
2019-05-09T10:07:27.817Z,5.58
2019-05-09T10:09:59.483Z,4.53
2019-05-09T10:12:32.081Z,3.27
2019-05-09T10:15:24.389Z,3.70
2019-05-09T10:17:59.067Z,2.80
2019-05-09T10:20:33.138Z,15.18
2019-05-09T10:23:16.985Z,8.23
2019-05-09T10:25:40.264Z,6.28
2019-05-09T10:28:12.334Z,2.77
2019-05-09T10:30:44.636Z,2.52
2019-05-09T10:33:17.516Z,4.22
2019-05-09T10:35:49.655Z,4.17
2019-05-09T10:38:21.602Z,5.10
2019-05-09T10:40:53.866Z,3.87
2019-05-09T10:43:35.632Z,2.35
2019-05-09T10:46:02.764Z,2.67
2019-05-09T10:48:38.738Z,2.75
2019-05-09T10:51:10.950Z,7.95
2019-05-09T10:53:43.584Z,4.30
2019-05-09T10:56:18.387Z,3.15
2019-05-09T10:58:49.515Z,3.98
2019-05-09T11:01:22.335Z,3.47
2019-05-09T11:03:54.554Z,5.37
2019-05-09T11:06:28.652Z,4.62
2019-05-09T11:09:13.228Z,5.03
2019-05-09T11:11:48.639Z,4.35
2019-05-09T11:14:35.467Z,5.40
2019-05-09T11:17:07.937Z,5.05
2019-05-09T11:19:29.311Z,5.83
2019-05-09T11:22:01.530Z,4.65
2019-05-09T11:24:43.035Z,3.90
2019-05-09T11:27:08.630Z,3.55
2019-05-09T11:29:40.671Z,4.15
2019-05-09T11:32:12.922Z,4.37
2019-05-09T11:34:48.431Z,3.80
2019-05-09T11:37:22.139Z,3.90
2019-05-09T11:39:52.781Z,4.50
2019-05-09T11:42:24.845Z,5.55
2019-05-09T11:44:58.045Z,5.87
2019-05-09T11:47:39.497Z,5.80
2019-05-09T11:50:04.116Z,5.83
2019-05-09T11:52:38.292Z,6.20
2019-05-09T11:55:28.871Z,7.15
2019-05-09T11:57:43.820Z,6.03
2019-05-09T12:00:19.315Z,6.47
2019-05-09T12:02:51.920Z,5.08
2019-05-09T12:05:24.174Z,4.35
2019-05-09T12:07:58.199Z,3.85
2019-05-09T12:10:31.093Z,3.70
2019-05-09T12:13:03.362Z,2.77
2019-05-09T12:15:35.291Z,4.15
2019-05-09T12:18:11.355Z,3.70
2019-05-09T12:21:02.114Z,3.40
2019-05-09T12:23:34.188Z,4.85
2019-05-09T12:26:08.245Z,3.95
2019-05-09T12:28:40.718Z,3.77
2019-05-09T12:31:13.014Z,3.52
2019-05-09T12:33:47.976Z,3.58
2019-05-09T12:36:19.458Z,3.33
2019-05-09T12:38:54.989Z,3.20
2019-05-09T12:41:31.525Z,3.22
2019-05-09T12:44:01.358Z,3.50
2019-05-09T12:46:33.309Z,3.30
2019-05-09T12:49:05.403Z,3.17
2019-05-09T12:51:37.788Z,3.85
2019-05-09T12:54:09.808Z,3.25
2019-05-09T12:56:49.713Z,3.62
2019-05-09T12:59:21.896Z,3.80
2019-05-09T13:01:54.507Z,3.10
2019-05-09T13:04:28.163Z,2.98
2019-05-09T13:07:00.593Z,3.08
2019-05-09T13:09:34.863Z,3.45
2019-05-09T13:12:08.624Z,3.50
2019-05-09T13:15:00.384Z,2.58
2019-05-09T13:17:32.335Z,3.60
2019-05-09T13:20:05.171Z,3.65
2019-05-09T13:22:38.367Z,4.22
2019-05-09T13:25:11.968Z,3.40
2019-05-09T13:27:44.211Z,3.60
2019-05-09T13:30:19.160Z,4.85
2019-05-09T13:32:51.242Z,3.80
2019-05-09T13:35:23.294Z,4.17
2019-05-09T13:37:55.367Z,4.20
2019-05-09T13:40:30.874Z,3.87
2019-05-09T13:43:03.505Z,3.95
2019-05-09T13:45:35.707Z,4.28
2019-05-09T13:48:27.234Z,4.17
2019-05-09T13:50:42.203Z,4.17
2019-05-09T13:53:14.819Z,4.08
2019-05-09T13:55:48.029Z,3.60
2019-05-09T13:58:20.024Z,4.72
2019-05-09T14:00:58.979Z,4.45
2019-05-09T14:03:45.151Z,3.30
2019-05-09T14:06:17.446Z,4.35
2019-05-09T14:08:49.355Z,3.55
2019-05-09T14:11:40.746Z,4.00
2019-05-09T14:14:12.851Z,3.10
2019-05-09T14:16:44.890Z,3.37
2019-05-09T14:19:45.445Z,3.20
2019-05-09T14:22:10.448Z,2.62
2019-05-09T14:24:43.821Z,2.98
2019-05-09T14:27:18.507Z,5.03
2019-05-09T14:29:49.974Z,3.42
2019-05-09T14:32:21.981Z,2.95
2019-05-09T14:34:54.659Z,2.85
2019-05-09T14:37:28.363Z,3.15
2019-05-09T14:40:04.426Z,3.45
2019-05-09T14:42:34.614Z,2.70
2019-05-09T14:45:08.519Z,3.42
2019-05-09T14:47:42.497Z,2.95
2019-05-09T14:50:14.718Z,3.40
2019-05-09T14:52:49.248Z,4.28
2019-05-09T14:55:21.027Z,3.90
2019-05-09T14:57:53.308Z,3.42
2019-05-09T15:00:26.505Z,3.85
2019-05-09T15:02:59.318Z,3.77
2019-05-09T15:05:31.448Z,4.22
2019-05-09T15:08:03.608Z,4.20
2019-05-09T15:10:38.035Z,3.52
2019-05-09T15:13:10.448Z,4.28
2019-05-09T15:15:42.386Z,4.10
2019-05-09T15:18:14.563Z,3.85
2019-05-09T15:20:47.923Z,4.00
2019-05-09T15:23:21.181Z,4.58
2019-05-09T15:25:54.043Z,4.35
2019-05-09T15:28:28.932Z,3.75
2019-05-09T15:31:00.842Z,4.55
2019-05-09T15:33:32.991Z,4.55
2019-05-09T15:36:04.960Z,4.65
2019-05-09T15:38:37.947Z,4.58
2019-05-09T15:41:12.303Z,4.60
2019-05-09T15:43:44.527Z,4.72
2019-05-09T15:46:18.620Z,4.22
2019-05-09T15:48:51.143Z,5.03
2019-05-09T15:51:23.510Z,4.72
2019-05-09T15:53:57.779Z,6.00
2019-05-09T15:56:29.509Z,5.72
2019-05-09T15:59:01.444Z,5.15
2019-05-09T16:01:33.572Z,5.35
2019-05-09T16:04:05.568Z,5.60
2019-05-09T16:06:39.147Z,5.25
2019-05-09T16:09:12.144Z,5.42
2019-05-09T16:11:44.303Z,5.03
2019-05-09T16:14:18.481Z,5.78
2019-05-09T16:16:50.667Z,5.80
2019-05-09T16:19:22.790Z,5.67
2019-05-09T16:21:55.050Z,5.42
2019-05-09T16:24:28.155Z,6.20
2019-05-09T16:27:01.278Z,5.53
2019-05-09T16:29:33.495Z,5.80
2019-05-09T16:32:05.498Z,6.72
2019-05-09T16:34:38.734Z,6.28
2019-05-09T16:37:11.032Z,6.62
2019-05-09T16:39:43.215Z,6.22
2019-05-09T16:42:15.306Z,7.33
2019-05-09T16:44:48.082Z,6.67
2019-05-09T16:47:22.006Z,7.42
2019-05-09T16:49:54.227Z,7.60
2019-05-09T16:52:26.377Z,7.10
2019-05-09T16:54:59.746Z,6.70
2019-05-09T16:57:32.101Z,6.97
2019-05-09T17:00:04.622Z,7.10
2019-05-09T17:02:38.140Z,5.08
2019-05-09T17:05:11.092Z,6.08
2019-05-09T17:07:43.023Z,6.62
2019-05-09T17:10:17.589Z,5.25
2019-05-09T17:12:49.548Z,6.05
2019-05-09T17:15:23.631Z,5.97
2019-05-09T17:17:55.996Z,7.35
2019-05-09T17:20:29.373Z,7.55
2019-05-09T17:23:13.472Z,7.50
2019-05-09T17:25:40.173Z,8.63
2019-05-09T17:28:13.017Z,8.98
2019-05-09T17:30:45.446Z,9.40
2019-05-09T17:33:17.926Z,8.53
2019-05-09T17:35:51.103Z,8.23
2019-05-09T17:38:23.211Z,8.38
2019-05-09T17:40:57.605Z,7.90
2019-05-09T17:43:29.166Z,7.90
2019-05-09T17:46:01.243Z,8.03
2019-05-09T17:48:33.702Z,10.03
2019-05-09T17:51:08.441Z,9.18
2019-05-09T17:53:39.980Z,8.93
2019-05-09T17:56:12.455Z,8.95
2019-05-09T17:58:44.519Z,9.28
2019-05-09T18:01:17.954Z,8.65
2019-05-09T18:03:50.944Z,9.30
2019-05-09T18:06:23.052Z,9.28
2019-05-09T18:08:57.492Z,9.05
2019-05-09T18:11:28.705Z,8.85
2019-05-09T18:14:00.852Z,9.73
2019-05-09T18:16:32.969Z,9.60
2019-05-09T18:19:08.179Z,9.63
2019-05-09T18:21:49.991Z,9.90
2019-05-09T18:24:13.156Z,9.85
2019-05-09T18:26:47.451Z,9.90
2019-05-09T18:29:22.143Z,9.38
2019-05-09T18:31:55.679Z,9.70
2019-05-09T18:34:28.786Z,10.00
2019-05-09T18:37:00.759Z,9.98
2019-05-09T18:39:32.721Z,10.50
2019-05-09T18:42:05.559Z,9.65
2019-05-09T18:44:37.694Z,10.65
2019-05-09T18:47:10.063Z,11.05
2019-05-09T18:49:42.226Z,10.48
2019-05-09T18:52:14.378Z,10.75
2019-05-09T18:54:47.422Z,11.25
2019-05-09T18:57:19.597Z,10.93
2019-05-09T18:59:51.614Z,10.15
2019-05-09T19:02:23.813Z,9.90
2019-05-09T19:04:55.895Z,9.95
2019-05-09T19:07:28.188Z,10.55
2019-05-09T19:10:00.360Z,10.35
2019-05-09T19:12:32.425Z,10.50
2019-05-09T19:15:06.416Z,10.60
2019-05-09T19:17:40.015Z,10.13
2019-05-09T19:20:14.075Z,10.65
2019-05-09T19:22:46.229Z,10.90
2019-05-09T19:25:18.349Z,10.82
2019-05-09T19:27:51.358Z,11.40
2019-05-09T19:30:25.774Z,11.48
2019-05-09T19:32:57.902Z,11.55
2019-05-09T19:35:29.952Z,11.28
2019-05-09T19:38:02.076Z,12.35
2019-05-09T19:40:34.375Z,11.38
2019-05-09T19:43:06.327Z,11.68
2019-05-09T19:45:38.592Z,10.88
2019-05-09T19:48:10.886Z,11.20
2019-05-09T19:50:42.712Z,13.40
2019-05-09T19:53:14.995Z,11.80
2019-05-09T19:55:47.472Z,12.50
2019-05-09T19:58:19.632Z,12.73
2019-05-09T20:00:51.642Z,13.35
2019-05-09T20:03:24.206Z,13.55
2019-05-09T20:05:56.549Z,14.43
2019-05-09T20:08:28.699Z,14.00
2019-05-09T20:11:02.298Z,13.80
2019-05-09T20:13:35.725Z,15.50
2019-05-09T20:16:08.321Z,15.13
2019-05-09T20:18:40.364Z,16.02
2019-05-09T20:21:31.721Z,14.60
2019-05-09T20:24:03.847Z,15.23
2019-05-09T20:26:36.057Z,15.15
2019-05-09T20:29:08.701Z,14.23
2019-05-09T20:31:41.620Z,17.05
2019-05-09T20:34:13.823Z,16.67
2019-05-09T20:36:45.946Z,16.05
2019-05-09T20:39:18.151Z,15.78
2019-05-09T20:41:51.224Z,16.67
2019-05-09T20:44:23.432Z,16.77
2019-05-09T20:46:56.173Z,16.27
2019-05-09T20:49:28.505Z,17.05
2019-05-09T20:52:00.667Z,17.30
2019-05-09T20:54:32.802Z,17.52
2019-05-09T20:57:05.462Z,17.42
2019-05-09T20:59:37.676Z,16.93
2019-05-09T21:02:10.123Z,18.73
2019-05-09T21:04:42.595Z,18.20
2019-05-09T21:07:15.268Z,17.37
2019-05-09T21:09:47.683Z,19.17
2019-05-09T21:12:20.400Z,19.45
2019-05-09T21:14:52.787Z,17.17
2019-05-09T21:17:25.149Z,18.95
2019-05-09T21:19:57.528Z,19.17
2019-05-09T21:22:29.734Z,18.82
2019-05-09T21:25:02.074Z,19.73
2019-05-09T21:27:34.508Z,19.37
2019-05-09T21:30:09.507Z,21.05
2019-05-09T21:32:42.846Z,19.45
2019-05-09T21:35:15.649Z,20.52
2019-05-09T21:37:47.880Z,19.80
2019-05-09T21:40:22.151Z,20.37
2019-05-09T21:42:54.198Z,18.35
2019-05-09T21:45:26.421Z,17.52
2019-05-09T21:47:58.810Z,19.35
2019-05-09T21:50:30.822Z,19.65
2019-05-09T21:53:03.208Z,18.27
2019-05-09T21:55:35.582Z,18.60
2019-05-09T21:58:07.689Z,17.92
2019-05-09T22:00:43.271Z,17.87
2019-05-09T22:03:15.555Z,19.30
2019-05-09T22:05:47.472Z,19.52
2019-05-09T22:08:19.871Z,19.45
2019-05-09T22:10:52.206Z,18.62
2019-05-09T22:13:24.261Z,19.30
2019-05-09T22:15:56.606Z,17.92
2019-05-09T22:18:31.486Z,15.72
2019-05-09T22:21:04.448Z,17.10
2019-05-09T22:23:36.408Z,18.95
2019-05-09T22:26:09.112Z,17.20
2019-05-09T22:28:41.248Z,17.00
2019-05-09T22:31:13.512Z,17.95
2019-05-09T22:33:46.077Z,19.65
2019-05-09T22:36:18.106Z,17.42
2019-05-09T22:38:50.710Z,18.30
2019-05-09T22:41:22.925Z,18.70
2019-05-09T22:43:54.925Z,19.37
2019-05-09T22:46:27.072Z,20.17
2019-05-09T22:48:59.415Z,20.08
2019-05-09T22:51:31.475Z,20.02
2019-05-09T22:54:12.389Z,19.32
2019-05-09T22:56:37.143Z,20.43
2019-05-09T22:59:09.960Z,19.55
2019-05-09T23:01:42.183Z,19.90
2019-05-09T23:04:14.430Z,20.85
2019-05-09T23:06:46.521Z,19.27
2019-05-09T23:09:21.230Z,19.37
2019-05-09T23:11:53.435Z,18.85
2019-05-09T23:14:25.652Z,19.48
2019-05-09T23:16:57.747Z,19.92
2019-05-09T23:19:30.687Z,18.23
2019-05-09T23:22:02.964Z,19.02
2019-05-09T23:24:37.991Z,19.23
2019-05-09T23:27:12.622Z,19.60
2019-05-09T23:29:55.854Z,20.27
2019-05-09T23:32:29.234Z,20.00
2019-05-09T23:35:02.119Z,20.02
2019-05-09T23:37:34.281Z,20.02
2019-05-09T23:40:08.637Z,19.75
2019-05-09T23:42:40.647Z,17.77
2019-05-09T23:45:13.141Z,18.27
2019-05-09T23:47:45.667Z,17.70
2019-05-09T23:50:18.222Z,17.10
2019-05-09T23:52:51.448Z,17.65
2019-05-09T23:55:25.018Z,25.65
2019-05-09T23:58:07.720Z,20.45
